Pagrindinis puslapis
METAR-TAF:

METAR-TAF

Oro uostai :

Gainesville, Florida, Jungtinės Amerikos Valstijos

platuma: 29-41-31N, ilguma: 082-16-32W, Aukštis: 46 m

Dabartinis oras

Ataskaita buvo paskelbta 14 minutes, ne 17:53 UTC
Vėjas 3 kt nuo kintamojo kryptimis
Temperatūra 22°C
Drėgmė 43%
Slėgis 1015 hPa
Matomumas: 16.1 km
Giedras dangus

METAR: KGNV 171753Z VRB03KT 10SM CLR 22/09 A2996 RMK AO2 SLP144 T02220089 10228 20161 58016

Laikas: 14:07 (18:07 UTC)

Prognozė

Ataskaita buvo paskelbta 47 minutes, ne 17:20 UTC
Prognozė galioja nuo 17 metu 18 UTC su 18 metu 18 UTC
Vėjas 6 kt iš Šiaurės/Šiaurės Vakarų
Matomumas: 10 km
Su prošvaistėmis ne aukštis 25000 ft
Nuo 17 metu 2300 UTC
Vėjas 3 kt nuo kintamojo kryptimis
Matomumas: 10 km
Apsiniaukę ne aukštis 25000 ft
Nuo 18 metu 1500 UTC
Vėjas 6 kt iš Rytų
Matomumas: 10 km
Su prošvaistėmis ne aukštis 10000 ft
Apsiniaukę ne aukštis 25000 ft

TAF: KGNV 171720Z 1718/1818 33006KT P6SM BKN250 FM172300 VRB03KT P6SM OVC250 FM181500 08006KT P6SM BKN100 OVC250

Orai ataskaitas ir orų prognozės (METAR, TAF).

turimą stotys yra geltonos ir raudonos taškus žemėlapyje.

Perkelti pele per norėdami pamatyti stoties vardą.

Tada spustelėkite, norėdami matyti oro stebėjimo ir prognozės.

Norėdami pakeisti žemėlapį: spustelėkite ant žalios mygtukų su juodo kryžiaus žemyn,; žalią mygtuką su brūkšneliu, jei norite nutolinti; arba žalių rodyklių gretimoms žemėlapius.


METAR-TAF: